Time;durP1;ratioP1;P1;durP2;ratioP2;P2;SDS_P1;SDS_P2;PMS_P1;PMS_P2;Temp;Humidity;BMP_temperature;BMP_pressure;BME280_temperature;BME280_humidity;BME280_pressure;Samples;Min_cycle;Max_cycle;Signal;HPM_P1;HPM_P2
2022/06/06 00:04:38;;;;;;;2.73;2.30;;;17.90;99.90;;;;;;10460079;28;20218;-68
2022/06/06 00:09:39;;;;;;;3.43;2.40;;;17.80;99.90;;;;;;10469605;28;20275;-71
2022/06/06 00:14:41;;;;;;;4.27;2.50;;;17.70;99.90;;;;;;10472040;28;20271;-69
2022/06/06 00:19:42;;;;;;;5.07;2.57;;;17.60;99.90;;;;;;10476546;28;20235;-69
2022/06/06 00:24:43;;;;;;;2.77;2.53;;;17.50;99.90;;;;;;10481960;28;20239;-70
2022/06/06 00:29:43;;;;;;;4.60;3.00;;;17.50;99.90;;;;;;10476899;28;20687;-69
2022/06/06 00:34:52;;;;;;;3.20;2.90;;;17.40;99.90;;;;;;10481993;28;20211;-70
2022/06/06 00:39:54;;;;;;;3.03;2.83;;;17.40;99.90;;;;;;10476054;28;20224;-70
2022/06/06 00:45:17;;;;;;;4.70;3.27;;;17.50;99.90;;;;;;10475926;28;20695;-69
2022/06/06 00:50:22;;;;;;;5.17;3.43;;;17.50;99.90;;;;;;10475515;28;20233;-71
2022/06/06 00:55:28;;;;;;;6.87;3.90;;;17.50;99.90;;;;;;10476512;28;20526;-69
2022/06/06 01:00:30;;;;;;;6.70;3.60;;;17.40;99.90;;;;;;10468924;28;20974;-69
2022/06/06 01:05:31;;;;;;;5.20;3.80;;;17.30;99.90;;;;;;10474844;28;20215;-70
2022/06/06 01:10:34;;;;;;;5.03;4.20;;;17.20;99.90;;;;;;10459431;28;20608;-69
2022/06/06 01:16:01;;;;;;;7.27;4.43;;;17.10;99.90;;;;;;10474313;28;20223;-69
2022/06/06 01:21:34;;;;;;;6.73;4.90;;;16.90;99.90;;;;;;10448140;28;20311;-69
2022/06/06 01:27:04;;;;;;;6.80;4.97;;;16.90;99.90;;;;;;10462055;28;20211;-70
2022/06/06 01:32:17;;;;;;;6.33;5.30;;;16.80;99.90;;;;;;10474594;28;20243;-69
2022/06/06 01:37:39;;;;;;;9.57;6.07;;;16.80;99.90;;;;;;10479400;28;20227;-69
2022/06/06 01:42:47;;;;;;;6.73;5.27;;;16.70;99.90;;;;;;10472959;28;20227;-70
2022/06/06 01:47:51;;;;;;;8.23;6.53;;;16.60;99.90;;;;;;10471749;28;20240;-69
2022/06/06 01:52:58;;;;;;;6.77;5.93;;;16.60;99.90;;;;;;10471672;28;20224;-69
2022/06/06 01:58:03;;;;;;;8.53;6.53;;;16.60;99.90;;;;;;10470982;28;20245;-69
2022/06/06 02:03:05;;;;;;;7.17;6.20;;;16.60;99.90;;;;;;10471463;28;20800;-70
2022/06/06 02:08:09;;;;;;;8.73;6.23;;;16.50;99.90;;;;;;10472906;28;20215;-70
2022/06/06 02:13:13;;;;;;;7.10;6.40;;;16.50;99.90;;;;;;10474008;28;20250;-69
2022/06/06 02:18:14;;;;;;;9.60;6.87;;;16.50;99.90;;;;;;10466223;28;20306;-69
2022/06/06 02:23:15;;;;;;;10.33;7.17;;;16.40;99.90;;;;;;10476973;28;20639;-69
2022/06/06 02:28:15;;;;;;;10.00;7.43;;;16.40;99.90;;;;;;10471193;28;20227;-70
2022/06/06 02:33:16;;;;;;;8.83;7.10;;;16.40;99.90;;;;;;10470924;28;20224;-69
2022/06/06 02:38:17;;;;;;;8.20;7.40;;;16.30;99.90;;;;;;10470442;28;20208;-68
2022/06/06 02:43:21;;;;;;;9.30;7.90;;;16.30;99.90;;;;;;10475285;28;20689;-69
2022/06/06 02:48:21;;;;;;;13.20;7.87;;;16.30;99.90;;;;;;10470761;28;20652;-69
2022/06/06 02:53:22;;;;;;;8.53;7.50;;;16.30;99.90;;;;;;10469479;28;20286;-69
2022/06/06 02:58:25;;;;;;;8.53;7.07;;;16.30;99.90;;;;;;10462341;28;20212;-69
2022/06/06 03:03:26;;;;;;;9.50;8.47;;;16.30;99.90;;;;;;10460455;28;20709;-69
2022/06/06 03:09:06;;;;;;;9.07;8.17;;;16.30;99.90;;;;;;10468289;28;20224;-69
2022/06/06 03:14:35;;;;;;;9.07;8.17;;;16.30;99.90;;;;;;10471049;28;20219;-69
2022/06/06 03:25:36;;;;;;;9.20;8.30;;;16.20;99.90;;;;;;10471648;28;20227;-69
2022/06/06 03:31:11;;;;;;;11.40;8.20;;;16.20;99.90;;;;;;10461466;28;20254;-69
2022/06/06 03:36:28;;;;;;;9.23;8.40;;;16.10;99.90;;;;;;10464667;28;20227;-70
2022/06/06 03:41:52;;;;;;;8.50;7.67;;;16.10;99.90;;;;;;10461253;28;20223;-69
2022/06/06 03:47:14;;;;;;;8.70;7.80;;;16.20;99.90;;;;;;10476354;28;20222;-70
2022/06/06 03:52:34;;;;;;;9.67;8.00;;;16.20;99.90;;;;;;10463908;28;20584;-71
2022/06/06 03:57:35;;;;;;;9.27;8.37;;;16.20;99.90;;;;;;10460657;28;20222;-70
2022/06/06 04:02:37;;;;;;;8.83;7.93;;;16.40;99.90;;;;;;10474669;28;20216;-69
2022/06/06 04:07:41;;;;;;;8.47;7.60;;;16.50;99.90;;;;;;10473425;28;20375;-70
2022/06/06 04:12:53;;;;;;;11.07;8.00;;;16.60;99.90;;;;;;10464876;28;20218;-69
2022/06/06 04:18:17;;;;;;;7.17;6.50;;;16.90;99.90;;;;;;10472852;28;20226;-70
2022/06/06 04:23:41;;;;;;;10.53;6.77;;;17.40;99.90;;;;;;10466028;28;20305;-69
2022/06/06 04:29:18;;;;;;;9.60;6.70;;;17.70;99.90;;;;;;10455762;28;20256;-69
2022/06/06 04:34:29;;;;;;;8.43;7.10;;;17.90;99.90;;;;;;10467565;28;20212;-71
2022/06/06 04:39:35;;;;;;;8.43;7.17;;;17.80;99.90;;;;;;10475670;28;20703;-70
2022/06/06 04:45:04;;;;;;;9.17;7.60;;;17.80;99.90;;;;;;10458510;28;20307;-69
2022/06/06 04:50:17;;;;;;;8.47;7.33;;;17.70;99.90;;;;;;10470897;28;20223;-70
2022/06/06 04:55:19;;;;;;;9.73;7.20;;;17.80;99.90;;;;;;10464745;28;20276;-69
2022/06/06 05:00:20;;;;;;;8.63;6.40;;;18.30;99.90;;;;;;10466484;28;20312;-69
2022/06/06 05:05:25;;;;;;;8.60;6.57;;;19.00;99.90;;;;;;10470669;28;20265;-69
2022/06/06 05:10:40;;;;;;;8.70;6.80;;;19.80;99.90;;;;;;10473333;28;20230;-69
2022/06/06 05:16:24;;;;;;;7.83;6.43;;;19.50;99.90;;;;;;10474080;28;20223;-69
2022/06/06 05:22:00;;;;;;;9.07;6.37;;;19.20;99.90;;;;;;10470738;28;20764;-69
2022/06/06 05:27:20;;;;;;;7.30;6.27;;;18.90;99.90;;;;;;10470812;28;20916;-69
2022/06/06 05:32:55;;;;;;;8.90;5.63;;;19.10;99.90;;;;;;10489094;28;20226;-69
2022/06/06 05:38:24;;;;;;;7.77;5.30;;;19.30;99.90;;;;;;10490331;28;20218;-68
2022/06/06 05:43:56;;;;;;;9.50;5.80;;;20.00;99.90;;;;;;10462927;28;20752;-70
2022/06/06 05:49:03;;;;;;;9.57;5.07;;;20.60;99.90;;;;;;10457717;28;20305;-69
2022/06/06 05:54:14;;;;;;;7.13;4.83;;;20.90;99.90;;;;;;10475364;28;20317;-69
2022/06/06 05:59:40;;;;;;;6.13;4.30;;;21.00;99.90;;;;;;10472511;28;20221;-69
2022/06/06 06:04:52;;;;;;;8.20;4.73;;;21.40;99.90;;;;;;10460416;28;20635;-69
2022/06/06 06:10:19;;;;;;;5.30;4.43;;;22.50;99.90;;;;;;10481944;28;20729;-69
2022/06/06 06:15:26;;;;;;;5.10;4.60;;;22.20;99.90;;;;;;10435180;28;20211;-69
2022/06/06 06:20:35;;;;;;;5.53;4.80;;;21.50;99.90;;;;;;10470076;28;20218;-69
2022/06/06 06:25:40;;;;;;;9.20;5.53;;;21.00;99.90;;;;;;10463996;28;20238;-70
2022/06/06 06:30:59;;;;;;;7.63;4.97;;;20.90;99.90;;;;;;10471083;28;20226;-70
2022/06/06 06:36:12;;;;;;;5.37;4.80;;;21.20;99.90;;;;;;10477674;28;20594;-70
2022/06/06 06:41:50;;;;;;;6.10;5.23;;;21.30;99.90;;;;;;10472366;28;20573;-69
2022/06/06 06:47:02;;;;;;;7.80;5.70;;;21.10;99.90;;;;;;10465355;28;20601;-69
2022/06/06 06:52:11;;;;;;;6.00;5.00;;;20.70;99.90;;;;;;10472007;28;20234;-68
2022/06/06 06:57:43;;;;;;;6.37;5.17;;;20.90;99.90;;;;;;10474204;28;20244;-68
2022/06/06 07:08:42;;;;;;;6.73;4.50;;;21.90;99.90;;;;;;10471533;28;20675;-70
2022/06/06 07:13:55;;;;;;;5.70;4.03;;;23.90;99.90;;;;;;10452855;28;20204;-69
2022/06/06 07:19:15;;;;;;;5.43;3.87;;;27.70;99.90;;;;;;10470569;28;20223;-69
2022/06/06 07:24:20;;;;;;;6.23;4.20;;;30.60;96.20;;;;;;10456710;28;20292;-68
2022/06/06 07:29:21;;;;;;;6.23;4.10;;;29.80;89.50;;;;;;10461581;28;20219;-68
2022/06/06 07:34:34;;;;;;;3.97;3.57;;;28.40;94.00;;;;;;10465661;28;20208;-68
2022/06/06 07:39:59;;;;;;;4.80;4.00;;;29.70;90.10;;;;;;10459533;28;20311;-69
2022/06/06 07:45:27;;;;;;;5.53;3.80;;;29.70;85.60;;;;;;10459657;28;20551;-69
2022/06/06 07:50:39;;;;;;;5.60;3.47;;;29.50;83.90;;;;;;10466555;28;20234;-69
2022/06/06 07:56:05;;;;;;;3.83;3.40;;;30.10;79.70;;;;;;10458868;28;20222;-68
2022/06/06 08:01:13;;;;;;;3.73;3.43;;;29.40;79.70;;;;;;10446879;28;20230;-69
2022/06/06 08:06:36;;;;;;;6.23;3.60;;;27.60;86.40;;;;;;10458115;28;20595;-69
2022/06/06 08:11:59;;;;;;;7.43;4.13;;;28.30;84.10;;;;;;10463125;28;20260;-68
2022/06/06 08:17:36;;;;;;;5.70;3.60;;;26.70;90.10;;;;;;10466883;28;20220;-69
2022/06/06 08:22:42;;;;;;;7.97;3.93;;;25.80;92.40;;;;;;10457933;28;20211;-68
2022/06/06 08:27:51;;;;;;;6.13;3.90;;;24.60;96.10;;;;;;10473522;28;20310;-69
2022/06/06 08:32:52;;;;;;;5.37;3.17;;;23.60;99.60;;;;;;10466641;28;20690;-68
2022/06/06 08:38:07;;;;;;;6.33;2.93;;;22.50;99.90;;;;;;10486712;28;20222;-69
2022/06/06 08:43:29;;;;;;;6.07;3.63;;;21.60;99.90;;;;;;10479020;28;20229;-69
2022/06/06 08:48:35;;;;;;;5.37;3.83;;;20.90;99.90;;;;;;10472884;28;20719;-69
2022/06/06 08:54:21;;;;;;;6.17;4.07;;;20.30;99.90;;;;;;10476371;28;20225;-68
2022/06/06 08:59:27;;;;;;;6.37;3.23;;;20.20;99.90;;;;;;10474364;28;20644;-70
2022/06/06 09:05:02;;;;;;;2.57;2.30;;;20.60;99.90;;;;;;10480679;28;20913;-70
2022/06/06 09:10:27;;;;;;;3.30;1.90;;;21.40;99.90;;;;;;10469291;28;20222;-70
2022/06/06 09:15:45;;;;;;;1.60;1.50;;;22.50;99.90;;;;;;10476422;28;20263;-70
2022/06/06 09:21:24;;;;;;;1.50;1.40;;;23.20;99.90;;;;;;10466888;28;20208;-70
2022/06/06 09:26:51;;;;;;;2.73;1.37;;;23.90;99.90;;;;;;10471976;28;20740;-69
2022/06/06 09:32:13;;;;;;;1.40;1.30;;;25.10;99.30;;;;;;10456772;28;20871;-69
2022/06/06 09:37:46;;;;;;;1.93;1.80;;;25.30;96.80;;;;;;10469371;28;20227;-70
2022/06/06 09:43:15;;;;;;;1.67;1.47;;;25.70;96.70;;;;;;10461343;28;20219;-69
2022/06/06 09:48:37;;;;;;;3.83;1.80;;;25.90;95.50;;;;;;10472349;28;20578;-68
2022/06/06 09:59:50;;;;;;;3.63;1.60;;;24.50;98.70;;;;;;10459686;28;20224;-69
2022/06/06 10:05:38;;;;;;;2.57;1.57;;;24.10;99.60;;;;;;10459514;28;20565;-70
2022/06/06 10:10:59;;;;;;;3.03;1.47;;;26.60;95.10;;;;;;10470049;28;20236;-70
2022/06/06 10:16:20;;;;;;;2.47;1.43;;;27.90;89.80;;;;;;10486919;28;20219;-71
2022/06/06 10:21:42;;;;;;;2.20;1.50;;;30.10;78.80;;;;;;10458466;28;20225;-70
2022/06/06 10:27:02;;;;;;;2.13;1.33;;;32.60;59.50;;;;;;10464163;28;20567;-70
2022/06/06 10:32:24;;;;;;;2.20;1.50;;;33.70;50.10;;;;;;10462991;28;20263;-70
2022/06/06 10:37:40;;;;;;;3.73;1.70;;;34.10;48.40;;;;;;10466848;28;20692;-69
2022/06/06 10:43:05;;;;;;;2.80;1.57;;;33.10;48.20;;;;;;10468130;28;20329;-69
2022/06/06 10:48:15;;;;;;;3.80;1.60;;;34.50;47.00;;;;;;10472857;28;20592;-70
2022/06/06 10:53:41;;;;;;;1.77;1.30;;;36.30;41.40;;;;;;10472176;28;20270;-70
2022/06/06 10:59:05;;;;;;;2.83;1.37;;;36.40;40.80;;;;;;10450255;28;20208;-70
2022/06/06 11:04:20;;;;;;;1.53;1.30;;;37.10;40.40;;;;;;10448444;28;20764;-69
2022/06/06 11:09:44;;;;;;;2.63;1.90;;;37.90;38.30;;;;;;10456939;28;20232;-69
2022/06/06 11:14:45;;;;;;;4.83;1.50;;;38.40;37.20;;;;;;10460851;28;20586;-69
2022/06/06 11:20:06;;;;;;;2.57;1.27;;;36.20;38.80;;;;;;10466409;28;20238;-70
2022/06/06 11:25:13;;;;;;;1.60;1.50;;;33.80;43.80;;;;;;10471336;28;20570;-70
2022/06/06 11:30:21;;;;;;;5.13;1.90;;;32.00;45.20;;;;;;10470744;28;20210;-70
2022/06/06 11:35:24;;;;;;;1.93;1.30;;;30.40;46.90;;;;;;10465045;28;20176;-70
2022/06/06 11:40:52;;;;;;;2.30;1.47;;;29.30;49.90;;;;;;10482134;28;20236;-69
2022/06/06 11:46:38;;;;;;;2.27;1.47;;;28.50;51.40;;;;;;10469883;28;20358;-70
2022/06/06 11:52:05;;;;;;;3.27;1.10;;;28.40;50.70;;;;;;10448460;28;20669;-69
2022/06/06 11:57:21;;;;;;;1.93;1.27;;;27.60;51.60;;;;;;10468032;28;20212;-70
2022/06/06 12:02:33;;;;;;;1.73;1.30;;;27.20;53.80;;;;;;10462934;28;20220;-70
2022/06/06 12:08:01;;;;;;;2.63;1.03;;;27.00;53.40;;;;;;10455345;28;20212;-70
2022/06/06 12:13:18;;;;;;;1.80;1.20;;;26.80;52.70;;;;;;10472918;28;20241;-70
2022/06/06 12:18:27;;;;;;;1.20;1.10;;;26.40;52.90;;;;;;10465342;28;20306;-68
2022/06/06 12:23:40;;;;;;;2.50;1.13;;;26.40;54.10;;;;;;10475208;28;20211;-71
2022/06/06 12:28:53;;;;;;;1.37;1.00;;;26.30;54.50;;;;;;10463889;28;20229;-67
2022/06/06 12:34:27;;;;;;;1.57;1.10;;;25.90;56.40;;;;;;10474458;28;20299;-70
2022/06/06 12:39:30;;;;;;;2.30;1.30;;;25.70;56.90;;;;;;10467126;28;20555;-70
2022/06/06 12:45:13;;;;;;;2.70;1.20;;;25.50;56.90;;;;;;10474072;28;20220;-70
2022/06/06 12:50:42;;;;;;;1.80;1.20;;;25.60;58.60;;;;;;10442491;28;20219;-71
2022/06/06 13:01:39;;;;;;;2.60;1.60;;;25.80;59.10;;;;;;10463770;28;20223;-70
2022/06/06 13:06:58;;;;;;;2.73;1.40;;;25.80;58.60;;;;;;10465820;28;20299;-69
2022/06/06 13:12:14;;;;;;;2.53;1.20;;;26.10;58.70;;;;;;10467700;28;20707;-69
2022/06/06 13:17:53;;;;;;;3.13;1.00;;;26.40;58.10;;;;;;10477419;28;20779;-69
2022/06/06 13:23:11;;;;;;;1.83;1.20;;;26.50;58.50;;;;;;10459033;28;20215;-71
2022/06/06 13:28:40;;;;;;;2.53;1.27;;;26.40;58.00;;;;;;10462695;28;20234;-71
2022/06/06 13:33:55;;;;;;;1.63;1.50;;;25.90;58.30;;;;;;10448852;28;20220;-71
2022/06/06 13:39:34;;;;;;;2.90;1.67;;;26.00;59.70;;;;;;10463124;28;20258;-70
2022/06/06 13:44:45;;;;;;;5.33;1.73;;;26.40;57.90;;;;;;10470169;28;20224;-69
2022/06/06 13:50:16;;;;;;;4.73;1.43;;;26.50;57.00;;;;;;10470682;28;20585;-70
2022/06/06 13:55:34;;;;;;;2.83;2.17;;;26.10;57.20;;;;;;10469294;28;20223;-69
2022/06/06 14:00:47;;;;;;;1.90;1.63;;;25.80;59.00;;;;;;10461974;28;20558;-70
2022/06/06 14:06:16;;;;;;;2.30;1.57;;;25.60;58.30;;;;;;10467803;28;20215;-69
2022/06/06 14:11:40;;;;;;;3.97;1.57;;;25.30;60.50;;;;;;10484227;28;20234;-69
2022/06/06 14:16:41;;;;;;;0.90;0.90;;;25.70;59.80;;;;;;10453119;28;20647;-70
2022/06/06 14:21:55;;;;;;;3.60;1.27;;;26.00;58.30;;;;;;10471019;28;20225;-70
2022/06/06 14:27:03;;;;;;;2.43;1.40;;;26.30;58.30;;;;;;10459128;28;20221;-69
2022/06/06 14:32:19;;;;;;;1.57;1.17;;;26.60;59.10;;;;;;10461570;28;20310;-70
2022/06/06 14:37:32;;;;;;;0.93;0.83;;;26.90;57.00;;;;;;10466023;28;20225;-69
2022/06/06 14:42:51;;;;;;;1.67;0.90;;;26.60;54.10;;;;;;10465814;28;20225;-70
2022/06/06 14:48:02;;;;;;;2.27;1.03;;;26.30;54.40;;;;;;10476470;28;20225;-70
2022/06/06 14:53:09;;;;;;;1.13;1.00;;;26.20;55.20;;;;;;10469490;28;20237;-70
2022/06/06 14:58:18;;;;;;;3.40;1.10;;;26.30;53.90;;;;;;10458585;28;20224;-70
2022/06/06 15:03:19;;;;;;;2.63;1.10;;;26.00;54.60;;;;;;10462569;28;20270;-70
2022/06/06 15:08:29;;;;;;;2.90;1.00;;;25.60;55.40;;;;;;10478539;28;20245;-70
2022/06/06 15:13:31;;;;;;;2.90;0.90;;;25.90;55.00;;;;;;10469665;28;20210;-69
2022/06/06 15:18:37;;;;;;;1.73;0.83;;;25.70;54.20;;;;;;10468069;28;20240;-69
2022/06/06 15:23:48;;;;;;;1.90;0.90;;;25.90;52.90;;;;;;10457336;28;20299;-69
2022/06/06 15:29:41;;;;;;;3.17;0.90;;;25.80;52.20;;;;;;10455375;28;20219;-68
2022/06/06 15:34:59;;;;;;;2.03;0.90;;;25.50;53.90;;;;;;10376853;28;20706;-69
2022/06/06 15:40:24;;;;;;;2.10;0.70;;;25.40;54.80;;;;;;10461890;28;20224;-70
2022/06/06 15:45:46;;;;;;;2.37;0.80;;;25.50;52.50;;;;;;10455852;28;20305;-70
2022/06/06 15:50:52;;;;;;;2.40;1.23;;;25.80;52.00;;;;;;10455520;28;20240;-69
2022/06/06 15:56:02;;;;;;;2.97;0.90;;;26.10;50.90;;;;;;10458664;28;20324;-69
2022/06/06 16:01:43;;;;;;;2.73;0.97;;;26.20;51.30;;;;;;10458999;28;20827;-69
2022/06/06 16:06:47;;;;;;;3.60;0.93;;;26.40;51.30;;;;;;10462063;28;20223;-69
2022/06/06 16:12:06;;;;;;;2.13;0.90;;;26.50;50.40;;;;;;10458436;28;20307;-69
2022/06/06 16:17:15;;;;;;;0.77;0.67;;;26.40;50.60;;;;;;10456458;28;20220;-69
2022/06/06 16:22:29;;;;;;;3.90;0.80;;;26.10;51.20;;;;;;10467584;28;20318;-69
2022/06/06 16:27:51;;;;;;;1.27;0.93;;;26.00;51.40;;;;;;10463842;28;20220;-70
2022/06/06 16:32:54;;;;;;;2.07;0.70;;;26.10;52.00;;;;;;10457897;28;20233;-70
2022/06/06 16:38:09;;;;;;;2.93;0.77;;;26.00;52.70;;;;;;10485719;28;20261;-70
2022/06/06 16:48:52;;;;;;;1.80;0.67;;;25.70;52.50;;;;;;10450731;28;20220;-70
2022/06/06 16:54:05;;;;;;;3.03;0.80;;;25.30;52.90;;;;;;10473469;28;20224;-69
2022/06/06 16:59:18;;;;;;;1.60;0.80;;;24.90;53.30;;;;;;10472536;28;20697;-70
2022/06/06 17:04:24;;;;;;;0.80;0.60;;;24.70;53.20;;;;;;10473467;28;20935;-70
2022/06/06 17:09:52;;;;;;;2.50;0.80;;;24.50;54.70;;;;;;10471127;28;20227;-69
2022/06/06 17:15:18;;;;;;;2.00;0.80;;;24.30;55.20;;;;;;10461262;28;20804;-70
2022/06/06 17:20:25;;;;;;;3.30;0.87;;;24.30;55.40;;;;;;10478987;28;20239;-68
2022/06/06 17:25:59;;;;;;;4.07;0.83;;;24.20;56.20;;;;;;10479441;28;20226;-69
2022/06/06 17:31:13;;;;;;;1.90;0.80;;;23.80;56.10;;;;;;10416994;28;20219;-70
2022/06/06 17:36:54;;;;;;;3.30;0.50;;;23.40;57.00;;;;;;10465609;28;20223;-71
2022/06/06 17:42:07;;;;;;;1.27;0.73;;;23.10;58.40;;;;;;10463201;28;20586;-71
2022/06/06 17:47:20;;;;;;;1.53;0.60;;;22.80;58.60;;;;;;10471906;28;20220;-70
2022/06/06 17:52:42;;;;;;;2.90;0.90;;;22.50;59.50;;;;;;10459557;28;20319;-71
2022/06/06 17:58:13;;;;;;;4.50;0.77;;;22.40;59.60;;;;;;10465592;28;20224;-70
2022/06/06 18:03:47;;;;;;;1.50;0.80;;;22.20;59.00;;;;;;10474660;28;20227;-69
2022/06/06 18:09:10;;;;;;;3.47;0.80;;;22.10;60.00;;;;;;10453309;28;20232;-69
2022/06/06 18:14:35;;;;;;;1.13;1.00;;;22.10;59.80;;;;;;10466892;28;20227;-69
2022/06/06 18:19:42;;;;;;;4.00;0.70;;;22.10;59.80;;;;;;10465933;28;20222;-69
2022/06/06 18:24:47;;;;;;;8.13;0.83;;;22.10;60.10;;;;;;10465014;28;20702;-70
2022/06/06 18:29:58;;;;;;;3.73;0.80;;;22.00;60.10;;;;;;10478282;28;20233;-69
2022/06/06 18:35:33;;;;;;;1.57;1.00;;;21.80;60.80;;;;;;10465849;28;20222;-69
2022/06/06 18:40:41;;;;;;;2.60;0.70;;;21.70;61.60;;;;;;10459334;28;20306;-70
2022/06/06 18:45:42;;;;;;;2.60;0.70;;;21.60;62.60;;;;;;10478243;28;20725;-69
2022/06/06 18:50:51;;;;;;;3.23;0.90;;;21.40;63.40;;;;;;10471952;28;20234;-69
2022/06/06 18:55:56;;;;;;;2.57;0.70;;;21.20;64.60;;;;;;10475808;28;20246;-69
2022/06/06 19:01:11;;;;;;;6.47;1.63;;;21.10;65.00;;;;;;10466888;28;20225;-69
2022/06/06 19:07:01;;;;;;;1.33;0.90;;;21.00;65.40;;;;;;10470203;28;20284;-69
2022/06/06 19:12:14;;;;;;;0.63;0.60;;;20.90;65.60;;;;;;10438225;28;20234;-70
2022/06/06 19:17:16;;;;;;;2.37;0.73;;;20.80;65.10;;;;;;10488332;28;20598;-69
2022/06/06 19:22:20;;;;;;;4.10;0.60;;;20.80;64.30;;;;;;10468829;28;20226;-70
2022/06/06 19:27:36;;;;;;;4.30;0.90;;;20.60;64.10;;;;;;10476587;28;20799;-72
2022/06/06 19:32:38;;;;;;;1.93;0.80;;;20.60;64.50;;;;;;10444256;28;20269;-70
2022/06/06 19:37:41;;;;;;;0.57;0.47;;;20.40;64.90;;;;;;10470757;28;20229;-70
2022/06/06 19:42:48;;;;;;;0.67;0.50;;;20.30;65.40;;;;;;10470574;28;20238;-71
2022/06/06 19:48:19;;;;;;;1.03;0.50;;;20.20;66.40;;;;;;10471510;28;20215;-69
2022/06/06 19:53:45;;;;;;;3.07;0.90;;;20.00;67.50;;;;;;10463063;28;20629;-69
2022/06/06 19:58:47;;;;;;;1.97;0.80;;;19.90;68.50;;;;;;10451936;28;20576;-69
2022/06/06 20:03:55;;;;;;;3.00;1.00;;;19.90;69.10;;;;;;10469949;28;20222;-71
2022/06/06 20:09:17;;;;;;;2.87;0.53;;;19.80;70.00;;;;;;10471336;28;20222;-72
2022/06/06 20:14:41;;;;;;;2.20;1.57;;;19.70;69.30;;;;;;10469362;28;20223;-71
2022/06/06 20:19:44;;;;;;;0.40;0.40;;;19.80;71.60;;;;;;10478981;28;20222;-70
2022/06/06 20:24:45;;;;;;;1.10;0.90;;;19.80;69.80;;;;;;10471831;28;20216;-69
2022/06/06 20:30:19;;;;;;;2.30;1.00;;;19.80;69.20;;;;;;10475997;28;20631;-70
2022/06/06 20:35:27;;;;;;;2.27;0.63;;;19.80;69.20;;;;;;10459182;28;20685;-72
2022/06/06 20:40:52;;;;;;;0.93;0.70;;;19.80;68.40;;;;;;10466926;28;20222;-69
2022/06/06 20:45:56;;;;;;;2.27;0.63;;;19.70;68.40;;;;;;10467551;28;20218;-73
2022/06/06 20:50:59;;;;;;;3.13;0.70;;;19.70;68.30;;;;;;10473933;28;20232;-72
2022/06/06 20:56:04;;;;;;;0.93;0.50;;;19.60;69.00;;;;;;10475779;28;20222;-72
2022/06/06 21:01:04;;;;;;;1.67;1.07;;;19.50;69.20;;;;;;10479494;28;20257;-71
2022/06/06 21:06:06;;;;;;;1.10;0.90;;;19.40;70.20;;;;;;10469480;28;20691;-70
2022/06/06 21:11:10;;;;;;;2.73;0.77;;;19.30;70.90;;;;;;10477591;28;20229;-71
2022/06/06 21:16:11;;;;;;;1.07;0.80;;;19.20;71.70;;;;;;10472024;28;20828;-70
2022/06/06 21:21:16;;;;;;;1.90;0.83;;;19.20;72.60;;;;;;10477878;28;20876;-71
2022/06/06 21:26:18;;;;;;;0.90;0.60;;;19.10;73.00;;;;;;10472837;28;20222;-71
2022/06/06 21:31:20;;;;;;;1.97;0.80;;;19.10;73.60;;;;;;10478034;28;20224;-71
2022/06/06 21:36:21;;;;;;;1.13;0.90;;;19.10;73.90;;;;;;10473417;28;20312;-70
2022/06/06 21:41:22;;;;;;;0.87;0.50;;;19.10;74.70;;;;;;10466711;28;20305;-70
2022/06/06 21:46:25;;;;;;;2.63;1.03;;;19.10;74.10;;;;;;10463517;28;20317;-71
2022/06/06 21:51:35;;;;;;;4.07;1.13;;;19.10;75.20;;;;;;10481202;28;20649;-70
2022/06/06 21:56:48;;;;;;;2.63;0.90;;;19.00;75.60;;;;;;10472367;28;20253;-71
2022/06/06 22:01:50;;;;;;;1.73;0.87;;;19.00;76.30;;;;;;10480306;28;20225;-70
2022/06/06 22:06:52;;;;;;;2.67;0.80;;;18.90;76.70;;;;;;10466812;28;20215;-71
2022/06/06 22:11:55;;;;;;;2.00;0.80;;;18.80;77.30;;;;;;10471892;28;20233;-70
2022/06/06 22:16:57;;;;;;;1.77;0.90;;;18.80;78.60;;;;;;10462477;28;20222;-70
2022/06/06 22:21:57;;;;;;;1.17;0.70;;;18.70;79.50;;;;;;10471201;28;20758;-69
2022/06/06 22:26:58;;;;;;;1.23;0.50;;;18.60;79.90;;;;;;10472538;28;20309;-71
2022/06/06 22:31:59;;;;;;;0.80;0.67;;;18.50;80.80;;;;;;10463440;28;20227;-72
2022/06/06 22:37:00;;;;;;;2.27;0.70;;;18.50;81.70;;;;;;10474021;28;20281;-71
2022/06/06 22:42:00;;;;;;;1.20;0.77;;;18.40;81.80;;;;;;10471002;28;20288;-71
2022/06/06 22:47:01;;;;;;;2.63;0.53;;;18.30;82.40;;;;;;10475179;28;20217;-72
2022/06/06 22:52:02;;;;;;;2.60;0.43;;;18.20;83.20;;;;;;10474237;28;20241;-71
2022/06/06 22:57:04;;;;;;;1.80;0.70;;;18.00;83.50;;;;;;10470431;28;20759;-71
2022/06/06 23:02:05;;;;;;;0.47;0.47;;;17.90;83.50;;;;;;10489866;28;20299;-70
2022/06/06 23:07:05;;;;;;;1.10;0.97;;;17.80;84.30;;;;;;10466776;28;20739;-71
2022/06/06 23:12:07;;;;;;;0.97;0.80;;;17.70;85.40;;;;;;10465072;28;20226;-72
2022/06/06 23:17:07;;;;;;;0.80;0.80;;;17.60;86.60;;;;;;10473844;28;20232;-72
2022/06/06 23:22:08;;;;;;;2.07;0.80;;;17.50;87.70;;;;;;10466008;28;20282;-71
2022/06/06 23:27:09;;;;;;;2.83;1.00;;;17.40;89.80;;;;;;10475606;28;20703;-71
2022/06/06 23:32:09;;;;;;;3.20;0.93;;;17.20;91.10;;;;;;10471717;28;20248;-71
2022/06/06 23:37:19;;;;;;;2.20;1.60;;;17.10;91.40;;;;;;10464795;28;20248;-72
2022/06/06 23:42:23;;;;;;;2.43;1.20;;;17.10;92.10;;;;;;10470350;28;20232;-72
2022/06/06 23:52:47;;;;;;;0.97;0.80;;;16.90;94.40;;;;;;10468675;28;20239;-72
2022/06/06 23:57:51;;;;;;;4.43;1.03;;;16.90;96.50;;;;;;10477062;28;20216;-72
